createdAt,value
2018-02-08T05:30:17.982Z,18.90
2018-02-08T05:32:46.252Z,21.13
2018-02-08T05:35:14.502Z,21.57
2018-02-08T05:37:43.521Z,22.20
2018-02-08T05:40:11.792Z,20.73
2018-02-08T05:42:40.078Z,21.83
2018-02-08T05:45:08.354Z,20.90
2018-02-08T05:47:36.631Z,21.50
2018-02-08T05:50:05.460Z,22.13
2018-02-08T05:52:33.684Z,22.30
2018-02-08T05:55:02.053Z,23.60
2018-02-08T05:57:31.038Z,22.13
2018-02-08T05:59:59.345Z,20.00
2018-02-08T06:02:27.612Z,22.33
2018-02-08T06:04:55.899Z,22.20
2018-02-08T06:07:24.116Z,20.03
2018-02-08T06:09:52.368Z,22.23
2018-02-08T06:12:21.393Z,21.30
2018-02-08T06:14:49.645Z,21.50
2018-02-08T06:17:17.868Z,22.00
2018-02-08T06:19:46.862Z,23.17
2018-02-08T06:22:15.872Z,21.90
2018-02-08T06:24:44.680Z,19.77
2018-02-08T06:27:13.016Z,21.97
2018-02-08T06:29:41.232Z,23.50
2018-02-08T06:32:09.452Z,23.43
2018-02-08T06:34:37.773Z,23.13
2018-02-08T06:37:06.052Z,21.17
2018-02-08T06:39:35.228Z,21.60
2018-02-08T06:42:04.348Z,22.50
2018-02-08T06:44:32.568Z,23.33
2018-02-08T06:47:00.901Z,19.93
2018-02-08T06:49:29.152Z,22.60
2018-02-08T06:51:58.141Z,22.13
2018-02-08T06:54:27.165Z,22.63
2018-02-08T06:56:55.385Z,22.63
2018-02-08T06:59:24.321Z,23.63
2018-02-08T07:01:53.336Z,21.00
2018-02-08T07:04:21.585Z,24.17
2018-02-08T07:06:50.569Z,22.43
2018-02-08T07:09:20.493Z,22.13
2018-02-08T07:11:49.481Z,21.30
2018-02-08T07:14:18.569Z,20.27
2018-02-08T07:16:46.765Z,21.83
2018-02-08T07:19:16.045Z,20.43
2018-02-08T07:21:44.264Z,22.73
2018-02-08T07:24:12.524Z,22.77
2018-02-08T07:26:41.384Z,24.13
2018-02-08T07:29:09.576Z,19.17
2018-02-08T16:02:02.653Z,27.03
2018-02-08T16:04:30.912Z,25.20
2018-02-08T16:06:59.120Z,26.77
2018-02-08T16:09:27.356Z,27.20
2018-02-08T16:11:57.072Z,26.47
2018-02-08T16:14:26.072Z,28.90
2018-02-08T16:16:54.343Z,29.47
2018-02-08T16:19:22.979Z,27.90
2018-02-08T16:21:51.193Z,25.00
2018-02-08T16:24:20.192Z,26.57
2018-02-08T16:26:49.173Z,26.40
2018-02-08T16:29:17.472Z,27.83
2018-02-08T16:31:45.744Z,25.80
2018-02-08T16:34:14.025Z,25.47
2018-02-08T16:36:42.300Z,27.17
2018-02-08T16:39:10.755Z,28.87
2018-02-08T16:41:38.956Z,28.53
2018-02-08T16:44:07.192Z,27.67
2018-02-08T16:46:35.400Z,28.80
2018-02-08T16:49:04.405Z,27.73
2018-02-08T16:51:33.408Z,26.67
2018-02-08T16:54:01.672Z,27.77
2018-02-08T16:56:30.124Z,25.57
2018-02-08T16:58:58.365Z,26.70
2018-02-08T17:01:26.613Z,26.80
2018-02-08T17:03:54.850Z,28.13
2018-02-08T17:06:23.061Z,26.97
2018-02-08T17:08:51.333Z,29.30
2018-02-08T17:11:19.889Z,28.10
2018-02-08T17:13:48.893Z,26.00
2018-02-08T17:16:17.877Z,24.90
2018-02-08T17:18:46.104Z,28.40
2018-02-08T17:21:14.345Z,25.60
2018-02-08T17:23:43.353Z,26.80
2018-02-08T17:26:13.045Z,24.97
2018-02-08T17:28:41.337Z,26.67
2018-02-08T17:31:09.553Z,25.80
2018-02-08T17:33:37.893Z,25.90
2018-02-08T17:36:06.133Z,25.77
2018-02-08T17:38:34.844Z,27.00
2018-02-08T17:41:03.840Z,26.30
2018-02-08T17:43:32.940Z,26.37
2018-02-08T17:46:01.148Z,23.90
2018-02-08T17:48:29.388Z,26.77
2018-02-08T17:50:58.401Z,25.43
2018-02-08T17:53:26.663Z,27.87
2018-02-08T17:55:54.845Z,23.10
2018-02-08T17:58:23.116Z,27.60
2018-02-08T18:00:51.418Z,26.70
2018-02-08T18:03:19.629Z,25.40
2018-02-08T18:05:49.381Z,23.70
2018-02-08T18:08:18.477Z,26.07
2018-02-08T18:10:46.705Z,25.03
2018-02-08T18:13:14.907Z,26.60
2018-02-08T18:15:43.917Z,25.70
2018-02-08T18:18:12.160Z,26.37
2018-02-08T18:20:40.395Z,26.83
2018-02-08T18:23:08.673Z,25.70
2018-02-08T18:25:36.896Z,28.10
2018-02-08T18:28:05.199Z,25.80
2018-02-08T18:30:34.201Z,23.93
2018-02-08T18:33:02.432Z,26.40
2018-02-08T18:35:30.671Z,26.20
2018-02-08T18:37:58.997Z,24.87
2018-02-08T18:40:27.220Z,26.27
2018-02-08T18:42:55.405Z,25.47
2018-02-08T18:45:23.640Z,24.70
2018-02-08T18:47:52.640Z,23.03
2018-02-08T18:50:20.991Z,22.50
2018-02-08T18:52:49.201Z,25.63
2018-02-08T18:55:17.465Z,23.83
2018-02-08T18:57:46.500Z,24.07
2018-02-08T19:00:14.861Z,23.97
2018-02-08T19:02:43.202Z,24.30
2018-02-08T19:05:11.425Z,25.20
2018-02-08T19:07:39.677Z,23.90
2018-02-08T19:10:07.913Z,23.87
2018-02-08T19:12:36.224Z,24.97
2018-02-08T19:15:05.259Z,26.13
2018-02-08T19:17:33.540Z,24.60
2018-02-08T19:20:01.789Z,23.83
2018-02-08T19:22:30.029Z,23.77
2018-02-08T19:24:59.005Z,24.40
2018-02-08T19:27:27.320Z,24.00
2018-02-08T19:29:55.821Z,24.20
2018-02-08T19:32:24.180Z,21.73
2018-02-08T19:34:53.184Z,23.70
2018-02-08T19:37:21.435Z,24.47
2018-02-08T19:39:49.733Z,24.03
2018-02-08T19:42:17.940Z,24.07
2018-02-08T19:44:46.280Z,24.90
2018-02-08T19:47:15.480Z,26.03
2018-02-08T19:49:43.760Z,25.27
2018-02-08T19:52:11.997Z,22.73
2018-02-08T19:54:41.853Z,22.27
2018-02-08T19:57:10.064Z,24.97
2018-02-08T19:59:38.306Z,23.37
2018-02-08T20:02:06.508Z,23.30
2018-02-08T20:04:34.885Z,24.07
2018-02-08T20:07:03.065Z,24.27
2018-02-08T20:09:31.404Z,23.93
2018-02-08T20:11:59.652Z,24.70
2018-02-08T20:14:43.589Z,21.30
2018-02-08T20:17:11.812Z,24.80
2018-02-08T20:19:40.082Z,21.30
2018-02-08T20:22:08.324Z,21.80
2018-02-08T20:24:36.545Z,23.00
2018-02-08T20:27:04.793Z,24.70
2018-02-08T20:29:33.902Z,23.53
2018-02-08T20:32:02.127Z,22.60
2018-02-08T20:34:30.425Z,24.77
2018-02-08T20:37:00.234Z,25.97
2018-02-08T20:39:30.035Z,25.40
2018-02-08T20:41:58.860Z,21.83
2018-02-08T20:44:27.964Z,22.97
2018-02-08T20:46:56.953Z,25.57
2018-02-08T20:49:25.956Z,23.90
2018-02-08T20:51:54.241Z,21.47
2018-02-08T20:54:23.140Z,20.13
2018-02-08T20:56:51.397Z,24.10
2018-02-08T20:59:19.610Z,24.03
2018-02-08T21:01:47.848Z,22.00
2018-02-08T21:04:16.108Z,22.20
2018-02-08T21:06:45.120Z,23.17
2018-02-08T21:09:13.361Z,21.80
2018-02-08T21:11:41.579Z,21.43
2018-02-08T21:14:09.925Z,23.13
2018-02-08T21:16:38.224Z,22.97
2018-02-08T21:19:06.500Z,23.57
2018-02-08T21:21:35.472Z,22.50
2018-02-08T21:24:04.484Z,23.83
2018-02-08T21:26:33.481Z,23.00
2018-02-08T21:29:01.692Z,24.60
2018-02-08T21:31:29.916Z,20.83
2018-02-08T21:33:58.964Z,22.50
2018-02-08T21:36:27.329Z,20.80
2018-02-08T21:38:55.562Z,22.23
2018-02-08T21:41:24.580Z,20.40
2018-02-08T21:43:52.817Z,19.47
2018-02-08T21:46:21.139Z,20.97
2018-02-08T21:48:49.404Z,20.03
2018-02-08T21:51:17.624Z,19.93
2018-02-08T21:53:45.880Z,22.57
2018-02-08T21:56:14.126Z,19.07
2018-02-08T21:58:43.139Z,21.77
2018-02-08T22:01:11.412Z,19.50
2018-02-08T22:03:40.336Z,20.47
2018-02-08T22:06:08.681Z,20.73
2018-02-08T22:08:36.959Z,19.00
2018-02-08T22:11:05.233Z,20.07
2018-02-08T22:13:33.456Z,20.53
2018-02-08T22:16:02.502Z,17.33
2018-02-08T22:18:30.748Z,20.70
2018-02-08T22:20:59.057Z,19.80
2018-02-08T22:23:27.340Z,24.27
2018-02-08T22:25:55.561Z,22.60
2018-02-08T22:28:23.830Z,23.63
2018-02-08T22:30:52.113Z,22.87
2018-02-08T22:33:20.361Z,22.57
2018-02-08T22:35:48.610Z,21.10
2018-02-08T22:38:16.869Z,21.33
2018-02-08T22:40:45.865Z,22.00
2018-02-08T22:43:14.887Z,23.57
2018-02-08T22:45:43.121Z,24.07
2018-02-08T22:48:12.877Z,24.90
2018-02-08T22:50:41.096Z,24.30
2018-02-08T22:53:09.361Z,26.90
2018-02-08T22:55:37.616Z,23.47
2018-02-08T22:58:05.838Z,24.37
2018-02-08T23:00:34.145Z,27.03
2018-02-08T23:03:02.389Z,23.80
2018-02-08T23:05:31.405Z,24.53
2018-02-08T23:08:00.416Z,24.00
2018-02-08T23:10:29.013Z,24.73
2018-02-08T23:12:57.248Z,26.60
2018-02-08T23:15:26.266Z,24.60
2018-02-08T23:17:54.545Z,23.60
2018-02-08T23:20:22.821Z,26.33
2018-02-08T23:22:51.557Z,25.23
2018-02-08T23:25:19.896Z,25.70
2018-02-08T23:27:48.131Z,26.37
2018-02-08T23:30:17.149Z,24.53
2018-02-08T23:32:45.364Z,25.17
2018-02-08T23:35:13.592Z,21.93
2018-02-08T23:37:42.604Z,25.40
2018-02-08T23:40:10.824Z,24.17
2018-02-08T23:42:39.157Z,23.90
2018-02-08T23:45:07.418Z,23.43
2018-02-08T23:47:36.424Z,26.07
2018-02-08T23:50:04.696Z,24.77
2018-02-08T23:52:32.940Z,24.67
2018-02-08T23:55:01.961Z,24.47
2018-02-08T23:57:30.964Z,24.93
2018-02-08T23:59:59.241Z,26.43
